createdAt,value
2022-08-14T00:04:35.762Z,60.44612
2022-08-14T00:10:01.736Z,60.44612
2022-08-14T00:15:51.705Z,60.44612
2022-08-14T00:20:52.729Z,60.44612
2022-08-14T00:26:06.134Z,60.66667
2022-08-14T00:31:09.740Z,60.88805
2022-08-14T00:36:36.954Z,60.88805
2022-08-14T00:41:49.093Z,60.88805
2022-08-14T00:46:50.478Z,61.11027
2022-08-14T00:51:51.543Z,61.11027
2022-08-14T00:56:55.315Z,61.33333
2022-08-14T01:01:57.175Z,61.33333
2022-08-14T01:06:59.194Z,61.55725
2022-08-14T01:12:03.470Z,61.55725
2022-08-14T01:17:04.692Z,61.55725
2022-08-14T01:22:05.623Z,61.78203
2022-08-14T01:27:07.220Z,61.78203
2022-08-14T01:32:10.420Z,61.78203
2022-08-14T01:37:11.617Z,61.55725
2022-08-14T01:42:32.109Z,61.78203
2022-08-14T01:47:37.545Z,61.78203
2022-08-14T01:52:59.588Z,61.55725
2022-08-14T01:58:18.837Z,61.55725
2022-08-14T02:03:22.171Z,61.78203
2022-08-14T02:08:34.426Z,61.55725
2022-08-14T02:13:37.122Z,61.55725
2022-08-14T02:18:38.208Z,61.55725
2022-08-14T02:23:40.466Z,61.55725
2022-08-14T02:28:57.693Z,61.55725
2022-08-14T02:34:00.365Z,61.55725
2022-08-14T02:39:01.405Z,61.55725
2022-08-14T02:44:02.978Z,61.55725
2022-08-14T02:49:08.464Z,61.55725
2022-08-14T02:54:13.250Z,61.55725
2022-08-14T02:59:21.146Z,61.78203
2022-08-14T03:04:22.126Z,61.78203
2022-08-14T03:09:23.131Z,61.78203
2022-08-14T03:14:24.182Z,61.78203
2022-08-14T03:19:25.209Z,61.78203
2022-08-14T03:24:26.208Z,61.78203
2022-08-14T03:29:28.045Z,62.00766
2022-08-14T03:34:47.948Z,62.00766
2022-08-14T03:39:49.638Z,62.00766
2022-08-14T03:45:18.968Z,62.00766
2022-08-14T03:50:31.489Z,62.23417
2022-08-14T03:55:33.266Z,62.00766
2022-08-14T04:00:43.993Z,62.00766
2022-08-14T04:05:48.532Z,62.00766
2022-08-14T04:10:50.281Z,62.00766
2022-08-14T04:16:01.218Z,62.00766
2022-08-14T04:21:04.140Z,62.00766
2022-08-14T04:26:08.213Z,62.00766
2022-08-14T04:31:09.572Z,62.00766
2022-08-14T04:36:16.040Z,62.00766
2022-08-14T04:41:18.627Z,61.78203
2022-08-14T04:46:56.315Z,61.78203
2022-08-14T04:51:58.606Z,61.78203
2022-08-14T04:57:04.043Z,61.78203
2022-08-14T05:02:05.053Z,61.55725
2022-08-14T05:07:06.028Z,61.33333
2022-08-14T05:13:12.841Z,61.55725
2022-08-14T05:18:17.230Z,62.00766
2022-08-14T05:23:38.368Z,61.78203
2022-08-14T05:28:43.466Z,61.78203
2022-08-14T05:33:44.469Z,61.78203
2022-08-14T05:38:56.345Z,61.78203
2022-08-14T05:43:57.949Z,62.23417
2022-08-14T05:48:58.876Z,61.78203
2022-08-14T05:54:12.787Z,62.00766
2022-08-14T05:59:36.839Z,61.55725
2022-08-14T06:04:40.523Z,60.66667
2022-08-14T06:09:42.736Z,60.66667
2022-08-14T06:14:52.020Z,60.88805
2022-08-14T06:19:55.128Z,60.88805
2022-08-14T06:24:57.146Z,60.88805
2022-08-14T06:29:58.075Z,61.11027
2022-08-14T06:35:04.017Z,60.66667
2022-08-14T06:40:25.576Z,61.78203
2022-08-14T06:45:28.523Z,62.00766
2022-08-14T06:50:30.519Z,61.11027
2022-08-14T06:55:31.549Z,61.33333
2022-08-14T07:00:32.553Z,60.88805
2022-08-14T07:05:33.578Z,60.22642
2022-08-14T07:10:35.716Z,61.33333
2022-08-14T07:15:39.616Z,61.11027
2022-08-14T07:20:43.590Z,60.66667
2022-08-14T07:25:45.610Z,57.02752
2022-08-14T07:30:50.685Z,57.23529
2022-08-14T07:35:57.836Z,58.07407
2022-08-14T07:40:59.880Z,58.28571
2022-08-14T07:46:00.912Z,59.78947
2022-08-14T07:51:11.104Z,59.35581
2022-08-14T07:56:21.597Z,59.35581
2022-08-14T08:01:37.739Z,58.49814
2022-08-14T08:06:49.518Z,59.35581
2022-08-14T08:11:54.208Z,59.78947
2022-08-14T08:16:55.581Z,58.92537
2022-08-14T08:21:56.523Z,59.14019
2022-08-14T08:26:57.413Z,58.71136
2022-08-14T08:32:01.811Z,58.92537
2022-08-14T08:37:07.132Z,59.35581
2022-08-14T08:42:08.426Z,60.00753
2022-08-14T08:47:11.279Z,58.92537
2022-08-14T08:52:24.497Z,58.71136
2022-08-14T08:57:26.642Z,58.49814
2022-08-14T09:02:27.924Z,57.65314
2022-08-14T09:07:28.966Z,58.07407
2022-08-14T09:12:32.997Z,58.28571
2022-08-14T09:17:34.169Z,59.14019
2022-08-14T09:22:36.727Z,58.49814
2022-08-14T09:27:48.898Z,59.35581
2022-08-14T09:32:59.539Z,59.57223
2022-08-14T09:38:01.130Z,59.35581
2022-08-14T09:43:02.201Z,59.57223
2022-08-14T09:48:03.189Z,60.66667
2022-08-14T09:53:04.520Z,61.33333
2022-08-14T09:58:05.839Z,62.46154
2022-08-14T10:03:09.130Z,60.44612
2022-08-14T10:08:14.980Z,60.66667
2022-08-14T10:13:16.149Z,62.91892
2022-08-14T10:18:18.333Z,63.37984
2022-08-14T10:23:19.512Z,63.84436
2022-08-14T10:28:39.646Z,63.37984
2022-08-14T10:34:20.181Z,62.23417
2022-08-14T10:39:30.451Z,61.33333
2022-08-14T10:44:32.983Z,61.11027
2022-08-14T10:49:33.930Z,61.11027
2022-08-14T10:54:40.048Z,60.88805
2022-08-14T10:59:43.383Z,61.33333
2022-08-14T11:04:44.593Z,62.68979
2022-08-14T11:09:46.790Z,62.00766
2022-08-14T11:14:49.346Z,64.07797
2022-08-14T11:19:53.717Z,64.07797
2022-08-14T11:24:56.069Z,64.3125
2022-08-14T11:30:00.519Z,63.37984
2022-08-14T11:35:53.706Z,63.14894
2022-08-14T11:41:00.833Z,63.61165
2022-08-14T11:46:03.377Z,65.25984
2022-08-14T11:51:04.945Z,65.02161
2022-08-14T11:56:11.040Z,65.25984
2022-08-14T12:01:12.232Z,67.94366
2022-08-14T12:06:28.766Z,64.54795
2022-08-14T12:11:44.244Z,65.49901
2022-08-14T12:16:48.647Z,65.02161
2022-08-14T12:21:50.017Z,62.46154
2022-08-14T12:26:57.821Z,62.00766
2022-08-14T12:32:00.096Z,60.88805
2022-08-14T12:37:01.112Z,62.23417
2022-08-14T12:42:02.145Z,61.78203
2022-08-14T12:47:03.081Z,63.37984
2022-08-14T12:52:11.871Z,64.78431
2022-08-14T12:57:20.382Z,61.11027
2022-08-14T13:02:21.709Z,61.55725
2022-08-14T13:07:27.113Z,62.91892
2022-08-14T13:12:43.196Z,65.9802
2022-08-14T13:17:57.674Z,65.02161
2022-08-14T13:23:01.268Z,62.46154
2022-08-14T13:28:02.294Z,60.88805
2022-08-14T13:33:03.214Z,62.00766
2022-08-14T13:38:04.117Z,61.33333
2022-08-14T13:43:05.685Z,61.55725
2022-08-14T13:48:06.584Z,62.46154
2022-08-14T13:53:07.703Z,63.61165
2022-08-14T13:58:30.011Z,63.61165
2022-08-14T14:03:34.811Z,63.61165
2022-08-14T14:08:43.477Z,65.02161
2022-08-14T14:13:48.425Z,66.46521
2022-08-14T14:18:49.338Z,66.95409
2022-08-14T14:23:53.430Z,65.49901
2022-08-14T14:28:54.827Z,64.3125
2022-08-14T14:33:58.322Z,66.46521
2022-08-14T14:38:59.414Z,69.20325
2022-08-14T14:44:00.376Z,67.94366
2022-08-14T14:49:01.546Z,68.94929
2022-08-14T14:54:04.554Z,66.46521
2022-08-14T14:59:05.525Z,69.45825
2022-08-14T15:04:07.980Z,69.45825
2022-08-14T15:09:23.806Z,69.20325
2022-08-14T15:14:55.028Z,68.69636
2022-08-14T15:19:59.040Z,67.44689
2022-08-14T15:25:00.016Z,66.95409
2022-08-14T15:30:02.249Z,68.44444
2022-08-14T15:35:03.613Z,67.94366
2022-08-14T15:40:10.264Z,68.69636
2022-08-14T15:45:23.302Z,67.94366
2022-08-14T15:50:25.317Z,67.69478
2022-08-14T15:55:27.570Z,68.94929
2022-08-14T16:00:40.486Z,67.69478
2022-08-14T16:05:46.125Z,67.69478
2022-08-14T16:10:47.240Z,67.69478
2022-08-14T16:15:53.069Z,67.69478
2022-08-14T16:20:54.681Z,67.2
2022-08-14T16:25:55.671Z,67.69478
2022-08-14T16:30:56.618Z,67.44689
2022-08-14T16:36:00.664Z,68.44444
2022-08-14T16:41:01.942Z,67.69478
2022-08-14T16:46:02.871Z,67.69478
2022-08-14T16:51:06.792Z,68.94929
2022-08-14T16:56:07.967Z,68.94929
2022-08-14T17:01:24.451Z,68.44444
2022-08-14T17:06:30.561Z,67.94366
2022-08-14T17:11:37.478Z,67.69478
2022-08-14T17:16:38.571Z,67.2
2022-08-14T17:21:41.530Z,69.20325
2022-08-14T17:26:42.768Z,69.20325
2022-08-14T17:31:58.600Z,68.44444
2022-08-14T17:37:01.663Z,69.20325
2022-08-14T17:42:03.386Z,68.69636
2022-08-14T17:47:14.596Z,67.69478
2022-08-14T17:52:18.940Z,67.44689
2022-08-14T17:57:41.173Z,67.44689
2022-08-14T18:02:50.626Z,67.44689
2022-08-14T18:08:31.406Z,66.70916
2022-08-14T18:13:51.260Z,66.46521
2022-08-14T18:18:53.640Z,66.22222
2022-08-14T18:23:54.569Z,67.44689
2022-08-14T18:28:55.507Z,67.2
2022-08-14T18:34:00.105Z,67.69478
2022-08-14T18:39:01.132Z,67.44689
2022-08-14T18:44:02.119Z,67.2
2022-08-14T18:49:03.031Z,66.95409
2022-08-14T18:54:06.324Z,67.2
2022-08-14T18:59:11.157Z,66.70916
2022-08-14T19:04:12.073Z,66.46521
2022-08-14T19:09:13.420Z,66.22222
2022-08-14T19:14:14.366Z,66.95409
2022-08-14T19:19:17.394Z,66.95409
2022-08-14T19:24:29.613Z,66.70916
2022-08-14T19:29:37.670Z,66.46521
2022-08-14T19:34:52.779Z,66.22222
2022-08-14T19:39:54.384Z,66.22222
2022-08-14T19:44:55.365Z,66.22222
2022-08-14T19:50:24.535Z,65.73913
2022-08-14T19:55:39.755Z,65.49901
2022-08-14T20:00:51.819Z,65.25984
2022-08-14T20:05:57.527Z,65.25984
2022-08-14T20:11:15.825Z,65.49901
2022-08-14T20:16:32.307Z,65.25984
2022-08-14T20:21:34.573Z,65.02161
2022-08-14T20:26:36.737Z,65.02161
2022-08-14T20:31:38.394Z,65.02161
2022-08-14T20:36:41.824Z,65.02161
2022-08-14T20:41:48.936Z,65.02161
2022-08-14T20:46:52.595Z,65.02161
2022-08-14T20:51:58.802Z,65.02161
2022-08-14T20:57:00.637Z,65.02161
2022-08-14T21:02:01.554Z,65.02161
2022-08-14T21:07:35.522Z,65.02161
2022-08-14T21:12:38.059Z,65.02161
2022-08-14T21:18:28.600Z,65.02161
2022-08-14T21:23:34.853Z,64.78431
2022-08-14T21:28:56.079Z,64.78431
2022-08-14T21:33:57.086Z,65.02161
2022-08-14T21:38:58.155Z,64.78431
2022-08-14T21:44:04.331Z,64.78431
2022-08-14T21:49:10.355Z,65.02161
2022-08-14T21:54:30.250Z,65.02161
2022-08-14T21:59:38.537Z,64.78431
2022-08-14T22:04:41.472Z,65.02161
2022-08-14T22:09:43.006Z,65.25984
2022-08-14T22:14:44.516Z,65.25984
2022-08-14T22:19:54.169Z,65.73913
2022-08-14T22:25:01.919Z,65.49901
2022-08-14T22:30:03.161Z,65.49901
2022-08-14T22:35:04.161Z,65.49901
2022-08-14T22:40:50.903Z,65.49901
2022-08-14T22:46:20.368Z,65.25984
2022-08-14T22:51:21.660Z,65.25984
2022-08-14T22:56:30.263Z,65.25984
2022-08-14T23:01:56.574Z,65.02161
2022-08-14T23:07:02.873Z,65.02161
2022-08-14T23:12:05.576Z,65.02161
2022-08-14T23:17:38.970Z,65.02161
2022-08-14T23:22:40.694Z,65.02161
2022-08-14T23:28:02.652Z,65.25984
2022-08-14T23:33:04.827Z,65.25984
2022-08-14T23:38:06.791Z,65.02161
2022-08-14T23:43:14.187Z,65.02161
2022-08-14T23:48:15.235Z,64.78431
2022-08-14T23:53:28.518Z,64.78431
2022-08-14T23:58:49.515Z,64.78431
